Terminal Aerodrome Forecast
Issued by NWS

Current Version | Previous Version | Graphics & Text | Print | Product List | Glossary On
Versions: 1 2 3 4 5 6 7 8 9 10 11 12 13 14 15
522
FTUS41 KPBZ 081121
TAFMGW
TAF
KMGW 081121Z 0812/0912 27010KT P6SM BKN025
     FM081400 21010G18KT P6SM BKN250
     FM090200 20005KT P6SM BKN250=

USA.gov is the U.S. government's official web portal to all federal, state and local government web resources and services.